Time;durP1;ratioP1;P1;durP2;ratioP2;P2;SDS_P1;SDS_P2;PMS_P1;PMS_P2;Temp;Humidity;BMP_temperature;BMP_pressure;BME280_temperature;BME280_humidity;BME280_pressure;Samples;Min_cycle;Max_cycle;Signal;HPM_P1;HPM_P2
2023/12/31 00:00:12;;;;;;;16.03;6.70;;;4.10;98.00;;;;;;4995163;28;21146;-68
2023/12/31 00:02:41;;;;;;;12.60;6.90;;;4.00;98.00;;;;;;4978061;28;20479;-67
2023/12/31 00:05:09;;;;;;;15.23;6.93;;;4.10;98.00;;;;;;4995140;28;20883;-70
2023/12/31 00:07:36;;;;;;;16.10;6.03;;;4.10;98.00;;;;;;4994801;28;20454;-67
2023/12/31 00:10:04;;;;;;;16.27;6.57;;;4.10;98.00;;;;;;4994216;28;20772;-70
2023/12/31 00:12:31;;;;;;;14.80;6.80;;;4.10;98.00;;;;;;4994190;28;20466;-68
2023/12/31 00:14:58;;;;;;;14.27;5.87;;;4.30;98.00;;;;;;4995017;28;20456;-68
2023/12/31 00:17:26;;;;;;;16.80;6.40;;;4.30;98.00;;;;;;4994892;28;20464;-68
2023/12/31 00:19:53;;;;;;;14.53;6.53;;;4.30;98.00;;;;;;4977298;28;20874;-68
2023/12/31 00:22:23;;;;;;;17.07;6.30;;;4.30;98.00;;;;;;4994928;28;20832;-68
2023/12/31 00:24:51;;;;;;;16.80;6.90;;;4.20;98.00;;;;;;4994628;28;20459;-69
2023/12/31 00:27:18;;;;;;;20.57;7.77;;;4.30;98.00;;;;;;4994433;28;20455;-68
2023/12/31 00:29:45;;;;;;;19.83;6.77;;;4.30;98.00;;;;;;4994473;28;20456;-69
2023/12/31 00:32:12;;;;;;;14.87;6.53;;;4.30;98.00;;;;;;4994445;28;20489;-69
2023/12/31 00:34:39;;;;;;;14.27;6.40;;;4.10;98.00;;;;;;4994404;28;20459;-69
2023/12/31 00:37:06;;;;;;;20.80;6.93;;;4.10;98.00;;;;;;4994351;28;20456;-69
2023/12/31 00:39:36;;;;;;;15.37;6.67;;;4.10;98.00;;;;;;4994413;28;20459;-69
2023/12/31 00:42:04;;;;;;;15.87;6.50;;;4.10;98.00;;;;;;4993084;28;20512;-68
2023/12/31 00:44:34;;;;;;;15.00;6.87;;;4.20;98.00;;;;;;4994339;28;20459;-69
2023/12/31 00:47:01;;;;;;;12.87;6.20;;;4.20;98.00;;;;;;4994233;28;20466;-69
2023/12/31 00:49:28;;;;;;;13.17;6.10;;;4.20;98.00;;;;;;4994223;28;20453;-69
2023/12/31 00:51:56;;;;;;;14.13;6.23;;;4.30;98.00;;;;;;4993964;28;20517;-69
2023/12/31 00:54:23;;;;;;;14.60;6.90;;;4.00;98.00;;;;;;4992999;28;20992;-69
2023/12/31 00:56:51;;;;;;;14.27;5.70;;;;;;;;;;4994056;28;20458;-69
2023/12/31 00:59:19;;;;;;;15.07;6.10;;;;;;;;;;4994228;28;20971;-69
2023/12/31 01:01:46;;;;;;;13.60;6.33;;;3.50;98.00;;;;;;4993902;28;20939;-69
2023/12/31 01:04:13;;;;;;;16.60;6.60;;;3.50;98.00;;;;;;4994205;28;20448;-69
2023/12/31 01:06:41;;;;;;;16.50;6.33;;;3.60;98.00;;;;;;4993999;28;20456;-69
2023/12/31 01:09:09;;;;;;;17.27;6.43;;;3.50;98.00;;;;;;4994164;28;20462;-69
2023/12/31 01:11:36;;;;;;;18.50;5.90;;;3.60;98.00;;;;;;4993861;28;20519;-68
2023/12/31 01:14:05;;;;;;;14.00;6.23;;;3.50;98.00;;;;;;4994011;28;20483;-69
2023/12/31 01:16:32;;;;;;;14.67;5.83;;;3.40;98.00;;;;;;4994015;28;20454;-68
2023/12/31 01:18:59;;;;;;;12.93;5.60;;;3.30;98.00;;;;;;4994187;28;20517;-69
2023/12/31 01:23:59;;;;;;;16.90;6.50;;;3.30;98.00;;;;;;4971489;28;20489;-67
2023/12/31 01:26:26;;;;;;;15.70;6.37;;;3.30;98.00;;;;;;4973578;28;20469;-69
2023/12/31 01:28:53;;;;;;;14.40;6.10;;;3.30;98.00;;;;;;4973444;28;20453;-69
2023/12/31 01:31:22;;;;;;;16.00;6.27;;;3.30;98.00;;;;;;4973346;28;20487;-69
2023/12/31 01:33:49;;;;;;;13.90;6.53;;;3.20;98.00;;;;;;4973223;28;20452;-69
2023/12/31 01:36:16;;;;;;;16.53;6.60;;;3.10;98.00;;;;;;4973276;28;20810;-69
2023/12/31 01:38:44;;;;;;;14.77;6.30;;;3.20;98.00;;;;;;4973090;28;20480;-69
2023/12/31 01:41:11;;;;;;;17.90;7.27;;;3.10;98.00;;;;;;4973217;28;20982;-68
2023/12/31 01:43:38;;;;;;;14.27;6.30;;;3.00;98.00;;;;;;4952660;29;20821;-69
2023/12/31 01:46:06;;;;;;;15.13;6.87;;;3.00;98.00;;;;;;4971665;28;20459;-68
2023/12/31 01:48:36;;;;;;;15.97;6.90;;;3.10;98.00;;;;;;4972773;28;20457;-69
2023/12/31 01:51:05;;;;;;;23.20;6.50;;;3.10;98.00;;;;;;4972819;28;20482;-69
2023/12/31 01:53:33;;;;;;;15.13;6.57;;;3.10;98.00;;;;;;4973119;28;20510;-69
2023/12/31 01:56:00;;;;;;;17.30;6.73;;;3.20;98.00;;;;;;4972792;28;20801;-68
2023/12/31 01:58:27;;;;;;;15.60;6.53;;;3.20;98.00;;;;;;4972732;28;20459;-68
2023/12/31 02:00:54;;;;;;;17.77;7.17;;;3.20;98.00;;;;;;4972710;28;20449;-68
2023/12/31 02:03:22;;;;;;;18.57;7.30;;;3.30;98.00;;;;;;4972527;28;20455;-68
2023/12/31 02:05:51;;;;;;;13.00;6.53;;;3.30;98.00;;;;;;4972756;28;20455;-68
2023/12/31 02:08:18;;;;;;;13.80;6.67;;;3.20;98.00;;;;;;4965024;28;20457;-68
2023/12/31 02:10:45;;;;;;;15.70;6.40;;;3.10;98.00;;;;;;4972393;28;20508;-69
2023/12/31 02:13:12;;;;;;;15.07;6.27;;;3.20;98.00;;;;;;4972618;28;20478;-68
2023/12/31 02:15:39;;;;;;;12.10;5.30;;;3.20;98.00;;;;;;4972494;28;20447;-69
2023/12/31 02:18:06;;;;;;;13.63;5.70;;;3.20;98.00;;;;;;4972525;28;20454;-68
2023/12/31 02:20:33;;;;;;;13.23;5.80;;;3.30;98.00;;;;;;4951952;29;21012;-68
2023/12/31 02:23:05;;;;;;;13.63;6.00;;;3.10;98.00;;;;;;4970386;28;20466;-69
2023/12/31 02:25:38;;;;;;;11.00;5.20;;;3.10;98.00;;;;;;4954959;28;20455;-69
2023/12/31 02:28:09;;;;;;;12.43;5.60;;;3.20;98.00;;;;;;4972177;28;20455;-66
2023/12/31 02:30:36;;;;;;;11.20;4.93;;;3.10;98.00;;;;;;4971535;28;20829;-66
2023/12/31 02:33:03;;;;;;;7.73;4.20;;;3.10;98.00;;;;;;4972202;28;20459;-68
2023/12/31 02:35:31;;;;;;;7.60;3.60;;;3.10;98.00;;;;;;4955155;28;20456;-68
2023/12/31 02:37:58;;;;;;;11.13;4.70;;;3.00;98.00;;;;;;4955105;28;20447;-69
2023/12/31 02:40:25;;;;;;;7.67;3.50;;;2.90;98.00;;;;;;4972272;28;20459;-68
2023/12/31 02:42:52;;;;;;;9.27;3.73;;;2.90;98.00;;;;;;4972233;28;20456;-68
2023/12/31 02:45:20;;;;;;;9.30;3.67;;;2.90;98.00;;;;;;4972293;28;20503;-69
2023/12/31 02:47:47;;;;;;;8.33;3.57;;;2.80;98.00;;;;;;4972047;28;20465;-69
2023/12/31 02:50:14;;;;;;;8.73;3.63;;;2.90;98.00;;;;;;4972141;28;21138;-68
2023/12/31 02:52:41;;;;;;;10.10;4.00;;;3.10;98.00;;;;;;4971913;28;20484;-68
2023/12/31 02:55:10;;;;;;;12.90;4.43;;;3.30;98.00;;;;;;4972086;28;20467;-69
2023/12/31 02:57:38;;;;;;;8.30;4.57;;;3.40;98.00;;;;;;4971317;28;20488;-69
2023/12/31 03:00:06;;;;;;;9.80;4.80;;;3.50;98.00;;;;;;4972154;28;20455;-68
2023/12/31 03:02:35;;;;;;;6.50;3.90;;;3.50;98.00;;;;;;4972330;28;20457;-69
2023/12/31 03:05:02;;;;;;;9.90;4.40;;;3.50;98.00;;;;;;4972475;28;20456;-69
2023/12/31 03:07:30;;;;;;;11.80;4.93;;;3.50;98.00;;;;;;4972049;28;20460;-69
2023/12/31 03:09:57;;;;;;;8.90;4.53;;;3.60;98.00;;;;;;4955134;28;20969;-68
2023/12/31 03:12:24;;;;;;;16.03;4.87;;;3.70;98.00;;;;;;4973190;28;21063;-69
2023/12/31 03:14:51;;;;;;;11.43;5.00;;;3.70;98.00;;;;;;4955725;28;20463;-68
2023/12/31 03:17:18;;;;;;;10.30;4.87;;;3.60;98.00;;;;;;4972436;28;20816;-69
2023/12/31 03:19:47;;;;;;;8.63;4.13;;;3.60;98.00;;;;;;4973100;28;20510;-68
2023/12/31 03:22:14;;;;;;;10.10;4.20;;;3.60;98.00;;;;;;4966942;28;20496;-69
2023/12/31 03:24:43;;;;;;;8.37;4.00;;;3.70;98.00;;;;;;4952582;29;20457;-69
2023/12/31 03:27:12;;;;;;;11.63;5.13;;;3.80;98.00;;;;;;4952410;29;20519;-68
2023/12/31 03:29:39;;;;;;;11.53;5.27;;;3.80;98.00;;;;;;4952213;29;20556;-69
2023/12/31 03:32:06;;;;;;;8.10;4.40;;;4.00;98.00;;;;;;4952648;29;20495;-68
2023/12/31 03:34:33;;;;;;;13.30;5.57;;;4.00;98.00;;;;;;4952515;29;20826;-68
2023/12/31 03:37:01;;;;;;;11.43;4.67;;;3.80;98.00;;;;;;4952490;29;20512;-68
2023/12/31 03:39:28;;;;;;;7.57;3.90;;;3.80;98.00;;;;;;4952381;29;20460;-68
2023/12/31 03:41:55;;;;;;;8.87;4.13;;;3.80;98.00;;;;;;4935418;29;20460;-68
2023/12/31 03:44:23;;;;;;;8.43;4.03;;;3.90;98.00;;;;;;4952456;29;20847;-68
2023/12/31 03:46:49;;;;;;;8.97;4.27;;;3.80;98.00;;;;;;4953972;28;20464;-68
2023/12/31 03:51:44;;;;;;;8.13;4.33;;;3.90;98.00;;;;;;4972256;28;20506;-68
2023/12/31 03:54:13;;;;;;;10.00;3.87;;;4.00;98.00;;;;;;4975037;28;20515;-68
2023/12/31 03:56:40;;;;;;;8.57;4.50;;;4.00;98.00;;;;;;4975059;28;20539;-68
2023/12/31 03:59:07;;;;;;;8.87;4.40;;;4.00;98.00;;;;;;4975028;28;20467;-68
2023/12/31 04:01:34;;;;;;;9.10;4.53;;;4.00;98.00;;;;;;4974993;28;20456;-68
2023/12/31 04:04:01;;;;;;;12.53;4.83;;;4.00;98.00;;;;;;4975086;28;20460;-68
2023/12/31 04:06:29;;;;;;;9.70;4.63;;;4.00;98.00;;;;;;4974483;28;20737;-69
2023/12/31 04:08:56;;;;;;;10.67;4.00;;;4.00;98.00;;;;;;4974847;28;20463;-69
2023/12/31 04:11:25;;;;;;;9.57;4.63;;;3.90;98.00;;;;;;4974789;28;20460;-69
2023/12/31 04:13:52;;;;;;;7.87;3.90;;;3.80;98.00;;;;;;4974397;28;20459;-68
2023/12/31 04:16:19;;;;;;;6.37;3.80;;;3.80;98.00;;;;;;4974745;28;20969;-69
2023/12/31 04:18:46;;;;;;;9.00;4.03;;;3.80;98.00;;;;;;4957505;28;20467;-69
2023/12/31 04:21:15;;;;;;;9.90;4.80;;;3.80;98.00;;;;;;4974779;28;20460;-68
2023/12/31 04:23:43;;;;;;;10.73;4.40;;;3.80;98.00;;;;;;4974630;28;20759;-68
2023/12/31 04:26:10;;;;;;;10.17;4.50;;;3.90;98.00;;;;;;4974479;28;20947;-69
2023/12/31 04:28:38;;;;;;;12.87;5.30;;;3.80;98.00;;;;;;4974414;28;20456;-68
2023/12/31 04:31:06;;;;;;;10.27;5.00;;;3.60;98.00;;;;;;4974515;28;20463;-68
2023/12/31 04:33:33;;;;;;;10.50;4.70;;;3.50;98.00;;;;;;4974106;28;20484;-68
2023/12/31 04:36:04;;;;;;;9.37;4.40;;;3.50;98.00;;;;;;4974362;28;20766;-69
2023/12/31 04:38:32;;;;;;;9.50;4.63;;;3.50;98.00;;;;;;4974414;28;20456;-69
2023/12/31 04:40:59;;;;;;;9.60;4.70;;;3.50;98.00;;;;;;4973683;28;20663;-69
2023/12/31 04:43:26;;;;;;;12.43;5.40;;;3.50;98.00;;;;;;4974337;28;20945;-68
2023/12/31 04:45:54;;;;;;;11.07;4.87;;;3.30;98.00;;;;;;4974177;28;20459;-68
2023/12/31 04:48:21;;;;;;;11.87;4.57;;;3.10;98.00;;;;;;4956978;28;20456;-69
2023/12/31 04:50:49;;;;;;;9.70;4.57;;;3.20;98.00;;;;;;4962088;28;20841;-68
2023/12/31 04:53:20;;;;;;;9.73;4.90;;;3.20;98.00;;;;;;4954625;29;20496;-68
2023/12/31 04:55:48;;;;;;;8.57;4.30;;;3.20;98.00;;;;;;4954668;29;20482;-69
2023/12/31 04:58:17;;;;;;;10.03;3.93;;;3.20;98.00;;;;;;4953636;28;20507;-68
2023/12/31 05:00:44;;;;;;;6.50;3.83;;;3.30;98.00;;;;;;4954048;29;20478;-68
2023/12/31 05:03:13;;;;;;;8.80;4.20;;;3.40;98.00;;;;;;4953701;29;20464;-68
2023/12/31 05:05:40;;;;;;;7.33;4.00;;;3.50;98.00;;;;;;4937508;29;20490;-69
2023/12/31 05:08:07;;;;;;;11.00;4.30;;;3.40;98.00;;;;;;4954605;29;20736;-68
2023/12/31 05:10:34;;;;;;;6.70;3.83;;;3.40;98.00;;;;;;4954554;29;20560;-69
2023/12/31 05:13:04;;;;;;;9.93;3.90;;;3.20;98.00;;;;;;4954541;29;20488;-69
2023/12/31 05:15:31;;;;;;;8.07;3.43;;;3.30;98.00;;;;;;4954376;29;20467;-69
2023/12/31 05:17:58;;;;;;;5.03;3.10;;;3.40;98.00;;;;;;4953935;29;20452;-68
2023/12/31 05:20:27;;;;;;;8.93;3.93;;;3.40;98.00;;;;;;4954233;29;20458;-68
2023/12/31 05:22:54;;;;;;;7.40;3.60;;;3.50;98.00;;;;;;4953910;29;20969;-69
2023/12/31 05:25:21;;;;;;;8.60;3.50;;;3.60;98.00;;;;;;4954184;29;20475;-68
2023/12/31 05:27:49;;;;;;;7.63;3.80;;;3.70;98.00;;;;;;4953969;29;20460;-69
2023/12/31 05:30:16;;;;;;;6.63;3.40;;;3.60;98.00;;;;;;4953866;29;20451;-68
2023/12/31 05:32:43;;;;;;;6.07;3.33;;;3.70;98.00;;;;;;4953307;29;20486;-69
2023/12/31 05:35:10;;;;;;;13.70;3.97;;;3.70;98.00;;;;;;4953906;29;20465;-69
2023/12/31 05:37:40;;;;;;;6.37;3.20;;;3.80;98.00;;;;;;4953958;29;20518;-68
2023/12/31 05:40:07;;;;;;;11.43;3.80;;;3.80;98.00;;;;;;4954101;29;20464;-68
2023/12/31 05:42:34;;;;;;;6.30;3.50;;;3.90;98.00;;;;;;4936593;29;20960;-68
2023/12/31 05:45:03;;;;;;;5.90;3.10;;;3.80;98.00;;;;;;4953782;29;20463;-69
2023/12/31 05:47:30;;;;;;;8.07;3.37;;;3.70;98.00;;;;;;4953578;29;20449;-68
2023/12/31 05:49:58;;;;;;;4.87;2.90;;;3.70;98.00;;;;;;4958768;28;20558;-69
2023/12/31 05:52:25;;;;;;;6.70;2.87;;;3.70;98.00;;;;;;4972682;28;20858;-68
2023/12/31 05:54:53;;;;;;;6.10;3.17;;;3.70;98.00;;;;;;4972744;28;20504;-68
2023/12/31 05:57:20;;;;;;;5.97;2.97;;;3.80;98.00;;;;;;4955281;28;20981;-69
2023/12/31 05:59:47;;;;;;;5.83;2.93;;;3.80;98.00;;;;;;4972737;28;20544;-69
2023/12/31 06:02:14;;;;;;;5.00;3.13;;;3.80;98.00;;;;;;4972836;28;20457;-68
2023/12/31 06:04:41;;;;;;;5.07;2.80;;;3.70;98.00;;;;;;4972916;28;20452;-69
2023/12/31 06:07:09;;;;;;;5.70;3.10;;;3.70;98.00;;;;;;4973148;28;20946;-68
2023/12/31 06:09:36;;;;;;;5.17;3.17;;;3.60;98.00;;;;;;4955443;28;20463;-68
2023/12/31 06:12:05;;;;;;;9.13;3.10;;;3.60;98.00;;;;;;4972517;28;20486;-69
2023/12/31 06:17:08;;;;;;;5.80;3.03;;;3.50;98.00;;;;;;5208809;23;20845;-69
2023/12/31 06:19:35;;;;;;;5.90;2.97;;;3.50;98.00;;;;;;4972555;28;20468;-69
2023/12/31 06:22:02;;;;;;;4.50;2.60;;;3.40;98.00;;;;;;4972744;28;20793;-69
2023/12/31 06:24:29;;;;;;;6.80;3.17;;;3.40;98.00;;;;;;4972377;28;20960;-69
2023/12/31 06:26:56;;;;;;;5.33;3.00;;;3.40;98.00;;;;;;4972350;28;20472;-69
2023/12/31 06:29:25;;;;;;;5.40;3.20;;;3.50;98.00;;;;;;4972498;28;20497;-69
2023/12/31 06:31:53;;;;;;;8.77;3.27;;;3.50;98.00;;;;;;4972094;28;20506;-69
2023/12/31 06:34:20;;;;;;;5.23;2.90;;;3.50;98.00;;;;;;4972552;28;20457;-69
2023/12/31 06:36:47;;;;;;;4.70;3.00;;;3.50;98.00;;;;;;4972727;28;20460;-69
2023/12/31 06:39:14;;;;;;;4.33;2.90;;;3.50;98.00;;;;;;4972814;28;20446;-69
2023/12/31 06:41:41;;;;;;;4.73;2.87;;;3.50;98.00;;;;;;4972331;28;20463;-69
2023/12/31 06:44:08;;;;;;;5.63;2.50;;;3.60;98.00;;;;;;4970836;28;20464;-69
2023/12/31 06:46:36;;;;;;;4.10;2.83;;;3.60;98.00;;;;;;4972104;28;20505;-69
2023/12/31 06:49:04;;;;;;;4.50;2.73;;;3.70;98.00;;;;;;4972082;28;20459;-69
2023/12/31 06:51:31;;;;;;;3.67;2.40;;;3.80;98.00;;;;;;4972148;28;20850;-69
2023/12/31 06:53:58;;;;;;;6.60;2.67;;;3.80;98.00;;;;;;4970628;28;20510;-69
2023/12/31 06:56:25;;;;;;;3.90;2.60;;;4.00;98.00;;;;;;4971821;28;20469;-69
2023/12/31 06:58:52;;;;;;;5.90;2.80;;;4.00;98.00;;;;;;4971975;28;20459;-69
2023/12/31 07:01:19;;;;;;;4.37;3.03;;;3.90;98.00;;;;;;4972049;28;20472;-65
2023/12/31 07:03:48;;;;;;;5.10;2.93;;;3.80;98.00;;;;;;4971057;28;20814;-65
2023/12/31 07:06:15;;;;;;;5.40;2.97;;;3.80;98.00;;;;;;4972563;28;20954;-65
2023/12/31 07:08:42;;;;;;;6.03;3.03;;;3.80;98.00;;;;;;4970797;28;20457;-65
2023/12/31 07:11:10;;;;;;;5.27;2.90;;;3.80;98.00;;;;;;4971097;28;20465;-65
2023/12/31 07:13:37;;;;;;;5.17;2.80;;;3.80;98.00;;;;;;4972528;28;20490;-65
2023/12/31 07:16:04;;;;;;;4.63;2.70;;;3.90;98.00;;;;;;4972940;28;20603;-65
2023/12/31 07:18:34;;;;;;;5.23;2.70;;;3.90;98.00;;;;;;4971976;28;20459;-66
2023/12/31 07:21:02;;;;;;;3.70;2.47;;;4.10;98.00;;;;;;4973227;28;20466;-65
2023/12/31 07:23:29;;;;;;;4.40;2.80;;;4.40;98.00;;;;;;4975758;28;20455;-65
2023/12/31 07:25:56;;;;;;;3.67;2.60;;;4.40;98.00;;;;;;4975565;28;20460;-65
2023/12/31 07:28:23;;;;;;;4.40;2.50;;;4.40;98.00;;;;;;4975203;28;20461;-65
2023/12/31 07:30:50;;;;;;;5.00;2.97;;;4.40;98.00;;;;;;4958136;28;20464;-65
2023/12/31 07:33:18;;;;;;;4.50;2.67;;;4.30;98.00;;;;;;4975136;28;20491;-65
2023/12/31 07:35:45;;;;;;;5.97;3.10;;;4.40;98.00;;;;;;4958555;28;20993;-65
2023/12/31 07:38:13;;;;;;;6.40;3.20;;;4.30;98.00;;;;;;4975665;28;20499;-65
2023/12/31 07:40:40;;;;;;;11.00;3.93;;;4.30;98.00;;;;;;4975415;28;20990;-66
2023/12/31 07:43:07;;;;;;;7.03;2.77;;;4.30;98.00;;;;;;4958580;28;20460;-65
2023/12/31 07:45:35;;;;;;;4.83;2.70;;;4.20;98.00;;;;;;4975490;28;20468;-65
2023/12/31 07:48:05;;;;;;;3.90;2.70;;;4.20;98.00;;;;;;4975287;28;20461;-65
2023/12/31 07:50:32;;;;;;;4.80;2.97;;;4.40;98.00;;;;;;4975235;28;20462;-65
2023/12/31 07:52:59;;;;;;;3.10;2.50;;;4.40;98.00;;;;;;4975321;28;20487;-65
2023/12/31 07:55:27;;;;;;;4.70;2.73;;;4.50;98.00;;;;;;4975490;28;20502;-65
2023/12/31 07:57:54;;;;;;;6.00;2.80;;;4.50;98.00;;;;;;4975102;28;20452;-65
2023/12/31 08:00:36;;;;;;;7.73;3.20;;;4.80;98.00;;;;;;4975278;28;20472;-66
2023/12/31 08:03:03;;;;;;;4.50;2.40;;;4.70;98.00;;;;;;4975075;28;20494;-66
2023/12/31 08:05:32;;;;;;;4.00;2.40;;;4.60;98.00;;;;;;4974887;28;20769;-65
2023/12/31 08:07:59;;;;;;;5.20;2.33;;;4.70;98.00;;;;;;4974723;28;20450;-65
2023/12/31 08:10:27;;;;;;;4.63;2.37;;;4.70;98.00;;;;;;4974927;28;20456;-65
2023/12/31 08:12:55;;;;;;;3.30;2.40;;;4.90;98.00;;;;;;4975065;28;20491;-65
2023/12/31 08:15:22;;;;;;;4.60;2.50;;;5.10;98.00;;;;;;4957607;28;20517;-65
2023/12/31 08:17:50;;;;;;;5.00;2.83;;;5.10;98.00;;;;;;4974790;28;20463;-66
2023/12/31 08:20:17;;;;;;;7.80;3.80;;;5.10;98.00;;;;;;4975077;28;20957;-66
2023/12/31 08:22:52;;;;;;;15.90;6.43;;;5.10;98.00;;;;;;4974838;28;20467;-65
2023/12/31 08:25:19;;;;;;;7.77;3.47;;;5.00;98.00;;;;;;4974904;28;20465;-66
2023/12/31 08:27:48;;;;;;;6.03;3.13;;;5.10;98.00;;;;;;4974110;28;20468;-66
2023/12/31 08:30:15;;;;;;;6.20;2.97;;;5.10;98.00;;;;;;4974988;28;20463;-66
2023/12/31 08:32:42;;;;;;;4.83;2.80;;;5.20;98.00;;;;;;4957447;28;20510;-65
2023/12/31 08:35:10;;;;;;;8.90;3.37;;;5.40;98.00;;;;;;4975183;28;20473;-65
2023/12/31 08:37:37;;;;;;;4.40;2.83;;;5.40;98.00;;;;;;4974521;28;20465;-65
2023/12/31 08:40:04;;;;;;;7.00;3.90;;;5.50;98.00;;;;;;4974598;28;20464;-65
2023/12/31 08:42:32;;;;;;;6.00;3.13;;;5.70;98.00;;;;;;4957080;28;20462;-65
2023/12/31 08:45:06;;;;;;;4.73;2.93;;;5.50;98.00;;;;;;4957841;28;20466;-65
2023/12/31 08:47:34;;;;;;;7.00;3.50;;;5.50;98.00;;;;;;4974959;28;20554;-66
2023/12/31 08:50:07;;;;;;;12.40;4.07;;;5.70;98.00;;;;;;4974798;28;20460;-66
2023/12/31 08:52:35;;;;;;;7.80;3.80;;;5.70;98.00;;;;;;4974808;28;20456;-65
2023/12/31 08:55:03;;;;;;;9.63;5.00;;;5.70;98.00;;;;;;4975075;28;20531;-65
2023/12/31 08:57:30;;;;;;;7.77;4.37;;;5.70;98.00;;;;;;4975081;28;20456;-66
2023/12/31 08:59:57;;;;;;;10.00;4.37;;;5.70;98.00;;;;;;4974546;28;20469;-65
2023/12/31 09:02:26;;;;;;;8.93;4.20;;;5.70;98.00;;;;;;4957326;28;20508;-65
2023/12/31 09:04:53;;;;;;;9.73;4.50;;;5.70;98.00;;;;;;4974707;28;20464;-66
2023/12/31 09:07:20;;;;;;;7.77;4.20;;;5.60;98.00;;;;;;4974720;28;20465;-66
2023/12/31 09:09:53;;;;;;;7.70;4.30;;;5.70;98.00;;;;;;4974604;28;20463;-66
2023/12/31 09:12:20;;;;;;;8.77;4.37;;;5.60;98.00;;;;;;4974445;28;20495;-65
2023/12/31 09:14:47;;;;;;;8.37;4.63;;;5.70;98.00;;;;;;4974231;28;20491;-66
2023/12/31 09:17:14;;;;;;;7.97;3.93;;;5.90;98.00;;;;;;4974503;28;20464;-66
2023/12/31 09:19:42;;;;;;;8.80;4.43;;;6.10;98.00;;;;;;4972637;28;20465;-65
2023/12/31 09:22:10;;;;;;;11.00;4.63;;;6.10;98.00;;;;;;4974314;28;20453;-65
2023/12/31 09:24:37;;;;;;;9.80;4.83;;;6.20;98.00;;;;;;4974129;28;20581;-65
2023/12/31 09:27:07;;;;;;;5.40;3.60;;;6.20;98.00;;;;;;4974441;28;20477;-66
2023/12/31 09:29:34;;;;;;;7.87;4.07;;;6.20;98.00;;;;;;4974134;28;20459;-65
2023/12/31 09:32:01;;;;;;;7.00;3.83;;;6.30;98.00;;;;;;4974107;28;20462;-66
2023/12/31 09:34:28;;;;;;;8.50;4.37;;;6.30;98.00;;;;;;4973867;28;20490;-66
2023/12/31 09:36:57;;;;;;;10.43;4.57;;;6.40;98.00;;;;;;4974097;28;20458;-65
2023/12/31 09:39:24;;;;;;;19.57;6.87;;;6.30;98.00;;;;;;4973829;28;20458;-66
2023/12/31 09:41:56;;;;;;;9.33;4.87;;;6.40;98.00;;;;;;4973621;28;20464;-65
2023/12/31 09:44:24;;;;;;;7.23;4.47;;;6.40;98.00;;;;;;5167221;23;20531;-66
2023/12/31 09:47:03;;;;;;;12.10;5.00;;;6.60;98.00;;;;;;5012238;28;20945;-65
2023/12/31 09:49:31;;;;;;;7.10;4.10;;;6.70;98.00;;;;;;5012204;28;20450;-65
2023/12/31 09:52:01;;;;;;;6.80;3.70;;;6.70;98.00;;;;;;5011305;28;20973;-65
2023/12/31 09:54:30;;;;;;;11.37;4.60;;;6.70;98.00;;;;;;5011507;28;20497;-66
2023/12/31 09:56:58;;;;;;;9.50;4.70;;;6.80;98.00;;;;;;5011893;28;20720;-65
2023/12/31 09:59:27;;;;;;;13.03;6.50;;;6.90;98.00;;;;;;5011880;28;20941;-65
2023/12/31 10:01:56;;;;;;;10.27;4.90;;;;;;;;;;4994544;28;20462;-66
2023/12/31 10:04:24;;;;;;;8.50;4.53;;;7.10;98.00;;;;;;5011885;28;20951;-66
2023/12/31 10:06:52;;;;;;;8.73;4.30;;;7.00;98.00;;;;;;5011656;28;20532;-65
2023/12/31 10:09:27;;;;;;;7.97;4.07;;;7.10;98.00;;;;;;4994602;28;20460;-66
2023/12/31 10:11:54;;;;;;;8.10;3.87;;;7.10;98.00;;;;;;5011787;28;20466;-65
2023/12/31 10:14:21;;;;;;;9.20;4.50;;;7.20;98.00;;;;;;5011626;28;21008;-66
2023/12/31 10:16:49;;;;;;;8.03;4.60;;;7.40;98.00;;;;;;5011738;28;20454;-65
2023/12/31 10:19:16;;;;;;;10.80;4.80;;;7.50;98.00;;;;;;5012024;28;20826;-65
2023/12/31 10:21:44;;;;;;;11.20;5.20;;;7.60;98.00;;;;;;5012113;28;20458;-66
2023/12/31 10:24:11;;;;;;;9.47;4.47;;;7.90;98.00;;;;;;5012008;28;20453;-66
2023/12/31 10:26:40;;;;;;;10.40;5.20;;;8.10;98.00;;;;;;5011795;28;20451;-66
2023/12/31 10:29:07;;;;;;;8.30;4.73;;;8.20;98.00;;;;;;4994023;28;20459;-66
2023/12/31 10:31:34;;;;;;;7.67;4.27;;;8.20;98.00;;;;;;5011713;28;20863;-66
2023/12/31 10:34:23;;;;;;;14.00;4.87;;;8.30;98.00;;;;;;5011595;28;20495;-66
2023/12/31 10:36:50;;;;;;;10.00;4.87;;;8.30;98.00;;;;;;5006597;28;20464;-66
2023/12/31 10:39:27;;;;;;;7.13;3.57;;;8.50;98.00;;;;;;5011557;28;20459;-65
2023/12/31 10:41:59;;;;;;;3.70;2.87;;;8.50;98.00;;;;;;5011233;28;20542;-66
2023/12/31 10:44:27;;;;;;;2.90;2.17;;;8.70;98.00;;;;;;5011488;28;20533;-65
2023/12/31 10:46:59;;;;;;;5.77;2.47;;;9.00;98.00;;;;;;5011314;28;20833;-65
2023/12/31 10:49:28;;;;;;;6.43;3.33;;;9.30;98.00;;;;;;5011750;28;20480;-64
2023/12/31 10:51:56;;;;;;;4.50;2.50;;;9.50;98.00;;;;;;5011480;28;20515;-65
2023/12/31 10:54:32;;;;;;;5.40;2.70;;;9.80;98.00;;;;;;5010774;28;20490;-65
2023/12/31 10:57:02;;;;;;;6.33;3.37;;;10.00;98.00;;;;;;5013225;28;20483;-64
2023/12/31 10:59:32;;;;;;;3.93;2.30;;;10.20;98.00;;;;;;5015394;28;20453;-64
2023/12/31 11:02:01;;;;;;;8.50;3.37;;;10.40;98.00;;;;;;5015321;28;20796;-64
2023/12/31 11:04:31;;;;;;;12.50;5.20;;;10.50;98.00;;;;;;4998071;28;20861;-65
2023/12/31 11:07:00;;;;;;;8.30;4.47;;;10.60;98.00;;;;;;4998886;28;21082;-65
2023/12/31 11:09:29;;;;;;;9.20;4.13;;;10.40;98.00;;;;;;4998978;28;20534;-65
2023/12/31 11:11:56;;;;;;;14.73;4.63;;;10.20;98.00;;;;;;5015648;28;20448;-65
2023/12/31 11:14:29;;;;;;;8.57;4.03;;;10.10;98.00;;;;;;5015537;28;20537;-65
2023/12/31 11:17:20;;;;;;;6.40;3.53;;;10.10;98.00;;;;;;5275764;23;20584;-64
2023/12/31 11:20:13;;;;;;;4.10;2.70;;;10.30;98.00;;;;;;5015655;28;20826;-66
2023/12/31 11:22:56;;;;;;;3.00;2.17;;;10.60;98.00;;;;;;5015761;28;20458;-65
2023/12/31 11:25:25;;;;;;;3.87;2.30;;;10.90;98.00;;;;;;4999593;28;20455;-66
2023/12/31 11:27:55;;;;;;;3.87;2.37;;;11.10;98.00;;;;;;5015236;28;21020;-66
2023/12/31 11:30:46;;;;;;;4.10;2.23;;;11.20;98.00;;;;;;5015624;28;20463;-66
2023/12/31 11:33:16;;;;;;;2.80;2.00;;;11.40;98.00;;;;;;5015443;28;20491;-65
2023/12/31 11:35:43;;;;;;;5.07;2.50;;;11.50;98.00;;;;;;5015097;28;20492;-66
2023/12/31 11:38:10;;;;;;;6.43;2.57;;;11.50;98.00;;;;;;5015279;28;20515;-65
2023/12/31 11:40:42;;;;;;;4.10;2.50;;;11.50;98.00;;;;;;5014795;28;20456;-66
2023/12/31 11:43:14;;;;;;;4.30;2.50;;;11.60;98.00;;;;;;4998189;28;20558;-65
2023/12/31 11:45:43;;;;;;;3.57;2.30;;;11.60;98.00;;;;;;5015373;28;20470;-67
2023/12/31 11:48:31;;;;;;;3.27;2.30;;;11.60;98.00;;;;;;5015186;28;20483;-66
2023/12/31 11:51:01;;;;;;;3.63;2.50;;;11.60;98.00;;;;;;5015195;28;20463;-66
2023/12/31 11:53:30;;;;;;;4.60;2.20;;;11.50;98.00;;;;;;4998197;28;20461;-67
2023/12/31 11:55:58;;;;;;;4.67;2.80;;;11.50;98.00;;;;;;5014431;28;20453;-67
2023/12/31 11:58:28;;;;;;;4.30;2.20;;;11.50;98.00;;;;;;5013464;28;20460;-66
2023/12/31 12:00:55;;;;;;;5.00;2.83;;;11.50;98.00;;;;;;5014871;28;20460;-67
2023/12/31 12:03:22;;;;;;;4.43;2.30;;;11.40;98.00;;;;;;5014920;28;20459;-68
2023/12/31 12:05:51;;;;;;;6.40;2.30;;;11.40;98.00;;;;;;5015013;28;20464;-67
2023/12/31 12:08:18;;;;;;;5.70;2.90;;;11.30;98.00;;;;;;5014404;28;20972;-67
2023/12/31 12:10:46;;;;;;;5.40;2.90;;;11.30;98.00;;;;;;5015085;28;20569;-68
2023/12/31 12:13:13;;;;;;;4.57;3.10;;;11.30;98.00;;;;;;5013157;28;20820;-67
2023/12/31 12:15:41;;;;;;;4.77;2.73;;;11.30;98.00;;;;;;5013523;28;20485;-66
2023/12/31 12:18:19;;;;;;;5.10;2.70;;;11.00;98.00;;;;;;5014168;28;20463;-67
2023/12/31 12:20:47;;;;;;;6.60;3.30;;;10.40;98.00;;;;;;5014548;28;20459;-66
2023/12/31 12:23:19;;;;;;;4.93;3.10;;;10.10;98.00;;;;;;5014428;28;20456;-67
2023/12/31 12:25:46;;;;;;;5.17;2.50;;;9.80;98.00;;;;;;5013226;28;20461;-67
2023/12/31 12:28:14;;;;;;;5.13;2.70;;;9.50;98.00;;;;;;5012944;28;20472;-67
2023/12/31 12:30:42;;;;;;;2.60;1.80;;;9.30;98.00;;;;;;5012685;28;20459;-66
2023/12/31 12:33:11;;;;;;;2.30;1.93;;;9.20;98.00;;;;;;5012508;28;20464;-66
2023/12/31 12:35:41;;;;;;;3.80;1.93;;;9.20;98.00;;;;;;4995248;28;20488;-66
2023/12/31 12:38:10;;;;;;;2.63;1.40;;;9.10;98.00;;;;;;5012813;28;20490;-65
2023/12/31 12:40:39;;;;;;;2.53;1.57;;;9.10;98.00;;;;;;4995544;28;21012;-65
2023/12/31 12:43:06;;;;;;;5.70;1.40;;;9.00;98.00;;;;;;5014133;28;20454;-65
2023/12/31 12:45:33;;;;;;;1.93;1.40;;;8.90;98.00;;;;;;5014108;28;20459;-66
2023/12/31 12:48:02;;;;;;;2.90;1.60;;;8.90;98.00;;;;;;4996541;28;20458;-65
2023/12/31 12:50:30;;;;;;;1.47;1.40;;;8.90;98.00;;;;;;5013875;28;20450;-65
2023/12/31 12:52:57;;;;;;;1.70;1.43;;;8.90;98.00;;;;;;5013718;28;20459;-66
2023/12/31 12:55:25;;;;;;;1.83;1.40;;;8.80;98.00;;;;;;5012690;28;20487;-65
2023/12/31 12:57:54;;;;;;;1.47;1.37;;;8.80;98.00;;;;;;5012511;28;20518;-65
2023/12/31 13:00:21;;;;;;;2.40;1.70;;;8.70;98.00;;;;;;4994992;28;20460;-65
2023/12/31 13:02:48;;;;;;;1.70;1.20;;;8.70;98.00;;;;;;4994031;28;20459;-66
2023/12/31 13:05:15;;;;;;;1.60;1.23;;;8.70;98.00;;;;;;4993524;28;20465;-65